Time;durP1;ratioP1;P1;durP2;ratioP2;P2;SDS_P1;SDS_P2;PMS_P1;PMS_P2;Temp;Humidity;BMP_temperature;BMP_pressure;BME280_temperature;BME280_humidity;BME280_pressure;Samples;Min_cycle;Max_cycle;Signal;HPM_P1;HPM_P2
2022/03/15 06:01:53;;;;;;;1999.90;999.90;;;;;;;;;;6198745;23;20295;-70
2022/03/15 06:04:39;;;;;;;1999.90;999.90;;;;;;;;;;6213721;23;20186;-69
2022/03/15 06:07:24;;;;;;;1999.90;999.90;;;;;;;;;;6214323;23;20173;-69
2022/03/15 06:10:09;;;;;;;1999.90;999.90;;;;;;;;;;6213306;23;20258;-69
2022/03/15 06:12:54;;;;;;;1999.90;999.90;;;;;;;;;;6183896;23;20173;-69
2022/03/15 06:15:39;;;;;;;1999.90;999.90;;;;;;;;;;6184090;23;20510;-69
2022/03/15 06:18:25;;;;;;;1999.90;999.90;;;;;;;;;;6182902;23;20225;-67
2022/03/15 06:21:10;;;;;;;1999.90;999.90;;;;;;;;;;6184033;23;20545;-70
2022/03/15 06:23:55;;;;;;;1999.90;999.90;;;;;;;;;;6182473;23;20458;-68
2022/03/15 06:26:42;;;;;;;1999.90;999.90;;;;;;;;;;6184200;23;20581;-65
2022/03/15 06:29:27;;;;;;;1999.90;999.90;;;;;;;;;;6183352;23;20517;-69
2022/03/15 06:32:12;;;;;;;1999.90;999.90;;;;;;;;;;6183927;23;20205;-69
2022/03/15 06:34:59;;;;;;;1999.90;999.90;;;;;;;;;;6184009;23;20212;-69
2022/03/15 06:37:46;;;;;;;1999.90;999.90;;;;;;;;;;6183431;23;20193;-69
2022/03/15 06:40:33;;;;;;;1999.90;999.90;;;;;;;;;;6183898;23;20570;-69
2022/03/15 06:43:19;;;;;;;1999.90;999.90;;;;;;;;;;6183934;23;20167;-69
2022/03/15 06:46:03;;;;;;;1999.90;999.90;;;;;;;;;;6184016;23;20512;-69
2022/03/15 06:48:48;;;;;;;1999.90;999.90;;;;;;;;;;6182713;23;20176;-69
2022/03/15 06:51:34;;;;;;;1999.90;999.90;;;;;;;;;;6183755;23;20295;-69
2022/03/15 06:54:19;;;;;;;1999.90;999.90;;;;;;;;;;6183857;23;20172;-69
2022/03/15 06:57:04;;;;;;;1999.90;999.90;;;;;;;;;;6183529;23;20209;-68
2022/03/15 06:59:49;;;;;;;1999.90;999.90;;;;;;;;;;6182978;23;20167;-68
2022/03/15 07:02:34;;;;;;;1999.90;999.90;;;;;;;;;;6183692;23;20225;-70
2022/03/15 07:05:19;;;;;;;1999.90;999.90;;;;;;;;;;6183577;23;20186;-69
2022/03/15 07:08:06;;;;;;;1999.90;999.90;;;;;;;;;;6182837;23;20172;-70
2022/03/15 07:10:53;;;;;;;1999.90;999.90;;;;;;;;;;6183459;23;20261;-69
2022/03/15 07:13:37;;;;;;;1999.90;999.90;;;;;;;;;;6183878;23;20186;-69
2022/03/15 07:16:22;;;;;;;1999.90;999.90;;;;;;;;;;6183057;23;20240;-70
2022/03/15 07:19:07;;;;;;;1999.90;999.90;;;;;;;;;;6182825;23;20693;-69
2022/03/15 07:21:52;;;;;;;1999.90;999.90;;;;;;;;;;6184832;23;20272;-69
2022/03/15 07:24:38;;;;;;;1999.90;999.90;;;;;;;;;;6185682;23;20212;-69
2022/03/15 07:27:23;;;;;;;1999.90;999.90;;;;;;;;;;6185652;23;20508;-71
2022/03/15 07:30:08;;;;;;;1999.90;999.90;;;;;;;;;;6185163;23;20196;-68
2022/03/15 07:32:53;;;;;;;1999.90;999.90;;;;;;;;;;6185663;23;20172;-69
2022/03/15 07:35:38;;;;;;;1999.90;999.90;;;;;;;;;;6185598;23;20170;-69
2022/03/15 07:38:23;;;;;;;1999.90;999.90;;;;;;;;;;6184633;23;20173;-69
2022/03/15 07:41:09;;;;;;;1999.90;999.90;;;;;;;;;;6185442;23;20253;-69
2022/03/15 07:43:54;;;;;;;1999.90;999.90;;;;;;;;;;6185466;23;20212;-69
2022/03/15 07:46:40;;;;;;;1999.90;999.90;;;;;;;;;;6185540;23;20170;-69
2022/03/15 07:49:26;;;;;;;1999.90;999.90;;;;;;;;;;6184419;23;20213;-68
2022/03/15 07:52:13;;;;;;;1999.90;999.90;;;;;;;;;;6185415;23;20731;-69
2022/03/15 07:55:00;;;;;;;1999.90;999.90;;;;;;;;;;6185431;23;20174;-68
2022/03/15 07:57:46;;;;;;;1999.90;999.90;;;;;;;;;;6183543;23;20409;-70
2022/03/15 08:00:31;;;;;;;1999.90;999.90;;;;;;;;;;6184983;23;20258;-70
2022/03/15 08:03:17;;;;;;;1999.90;999.90;;;;;;;;;;6185426;23;20254;-69
2022/03/15 08:06:01;;;;;;;1999.90;999.90;;;;;;;;;;6185453;23;20242;-68
2022/03/15 08:08:48;;;;;;;1999.90;999.90;;;;;;;;;;6184537;23;20496;-68
2022/03/15 08:11:35;;;;;;;1999.90;999.90;;;;;;;;;;6184965;23;20229;-67
2022/03/15 08:14:21;;;;;;;1999.90;999.90;;;;;;;;;;6185314;23;20166;-70
2022/03/15 08:17:07;;;;;;;1999.90;999.90;;;;;;;;;;6184844;23;20173;-69
2022/03/15 08:19:51;;;;;;;1999.90;999.90;;;;;;;;;;6184060;23;20178;-70
2022/03/15 08:22:37;;;;;;;1999.90;999.90;;;;;;;;;;6183310;23;20566;-71
2022/03/15 08:25:22;;;;;;;1999.90;999.90;;;;;;;;;;6184832;23;20511;-72
2022/03/15 08:28:07;;;;;;;1999.90;999.90;;;;;;;;;;6184903;23;20233;-69
2022/03/15 08:30:54;;;;;;;1999.90;999.90;;;;;;;;;;6184531;23;20214;-68
2022/03/15 08:33:39;;;;;;;1999.90;999.90;;;;;;;;;;6184480;23;20681;-69
2022/03/15 08:36:24;;;;;;;1999.90;999.90;;;;;;;;;;6184610;23;20290;-68
2022/03/15 08:39:09;;;;;;;1999.90;999.90;;;;;;;;;;6183798;23;20166;-69
2022/03/15 08:41:54;;;;;;;1999.90;999.90;;;;;;;;;;6184505;23;20221;-68
2022/03/15 08:44:39;;;;;;;1999.90;999.90;;;;;;;;;;6184851;23;20171;-68
2022/03/15 08:47:25;;;;;;;1999.90;999.90;;;;;;;;;;6184154;23;20222;-69
2022/03/15 08:50:11;;;;;;;1999.90;999.90;;;;;;;;;;6184307;23;20537;-69
2022/03/15 08:52:56;;;;;;;1999.90;999.90;;;;;;;;;;6184589;23;20202;-68
2022/03/15 08:55:41;;;;;;;1999.90;999.90;;;;;;;;;;6184547;23;20512;-68
2022/03/15 08:58:26;;;;;;;1999.90;999.90;;;;;;;;;;6183708;23;20166;-68
2022/03/15 09:01:11;;;;;;;1999.90;999.90;;;;;;;;;;6183016;23;20728;-68
2022/03/15 09:03:57;;;;;;;1999.90;999.90;;;;;;;;;;6184533;23;20167;-68
2022/03/15 09:06:42;;;;;;;1999.90;999.90;;;;;;;;;;6184468;23;20241;-68
2022/03/15 09:09:28;;;;;;;1999.90;999.90;;;;;;;;;;6183065;23;20170;-68
2022/03/15 09:12:13;;;;;;;1999.90;999.90;;;;;;;;;;6182340;23;20797;-70
2022/03/15 09:14:58;;;;;;;1999.90;999.90;;;;;;;;;;6182609;23;20169;-70
2022/03/15 09:17:43;;;;;;;1999.90;999.90;;;;;;;;;;6181975;23;20267;-69
2022/03/15 09:20:29;;;;;;;1999.90;999.90;;;;;;;;;;6182266;23;20210;-69
2022/03/15 09:23:17;;;;;;;1999.90;999.90;;;;;;;;;;6182060;23;20169;-69
2022/03/15 09:26:02;;;;;;;1999.90;999.90;;;;;;;;;;6182594;23;20616;-68
2022/03/15 09:28:47;;;;;;;1999.90;999.90;;;;;;;;;;6181428;23;20268;-68
2022/03/15 09:31:32;;;;;;;1999.90;999.90;;;;;;;;;;6181844;23;20217;-67
2022/03/15 09:34:17;;;;;;;1999.90;999.90;;;;;;;;;;6182593;23;20173;-68
2022/03/15 09:37:04;;;;;;;1999.90;999.90;;;;;;;;;;6182296;23;20665;-66
2022/03/15 09:39:51;;;;;;;1999.90;999.90;;;;;;;;;;6181636;23;20657;-70
2022/03/15 09:42:36;;;;;;;1999.90;999.90;;;;;;;;;;6182132;23;20197;-68
2022/03/15 09:45:22;;;;;;;1999.90;999.90;;;;;;;;;;6181972;23;20171;-68
2022/03/15 09:48:11;;;;;;;1999.90;999.90;;;;;;;;;;6181359;23;20507;-68
2022/03/15 09:50:56;;;;;;;1999.90;999.90;;;;;;;;;;6182183;23;20214;-68
2022/03/15 09:53:43;;;;;;;1999.90;999.90;;;;;;;;;;6181741;23;20177;-68
2022/03/15 09:56:28;;;;;;;1999.90;999.90;;;;;;;;;;6182457;23;20169;-67
2022/03/15 09:59:15;;;;;;;1999.90;999.90;;;;;;;;;;6180823;23;20169;-68
2022/03/15 10:02:00;;;;;;;1999.90;999.90;;;;;;;;;;6181843;23;20215;-68
2022/03/15 10:04:45;;;;;;;1999.90;999.90;;;;;;;;;;6181726;23;20250;-68
2022/03/15 10:07:30;;;;;;;1999.90;999.90;;;;;;;;;;6182309;23;20166;-68
2022/03/15 10:10:16;;;;;;;1999.90;999.90;;;;;;;;;;6181774;23;20170;-68
2022/03/15 10:13:02;;;;;;;1999.90;999.90;;;;;;;;;;6181649;23;20202;-70
2022/03/15 10:15:51;;;;;;;1999.90;999.90;;;;;;;;;;6181456;23;20166;-67
2022/03/15 10:18:36;;;;;;;1999.90;999.90;;;;;;;;;;6180973;23;20187;-70
2022/03/15 10:21:24;;;;;;;1999.90;999.90;;;;;;;;;;6181518;23;20278;-69
2022/03/15 10:24:10;;;;;;;1999.90;999.90;;;;;;;;;;6181835;23;20514;-67
2022/03/15 10:26:57;;;;;;;1999.90;999.90;;;;;;;;;;6182592;23;20246;-70
2022/03/15 10:29:43;;;;;;;1999.90;999.90;;;;;;;;;;6182501;23;20616;-70
2022/03/15 10:32:28;;;;;;;1999.90;999.90;;;;;;;;;;6183520;23;20214;-69
2022/03/15 10:35:14;;;;;;;1999.90;999.90;;;;;;;;;;6183814;23;20170;-69
2022/03/15 10:37:59;;;;;;;1999.90;999.90;;;;;;;;;;6182767;23;20171;-68
2022/03/15 10:40:46;;;;;;;1999.90;999.90;;;;;;;;;;6183432;23;20251;-68
2022/03/15 10:43:32;;;;;;;1999.90;999.90;;;;;;;;;;6183847;23;20167;-67
2022/03/15 10:46:21;;;;;;;1999.90;999.90;;;;;;;;;;6183516;23;20170;-68
2022/03/15 10:49:06;;;;;;;1999.90;999.90;;;;;;;;;;6182555;23;20166;-70
2022/03/15 10:51:51;;;;;;;1999.90;999.90;;;;;;;;;;6183079;23;20258;-69
2022/03/15 10:54:37;;;;;;;1999.90;999.90;;;;;;;;;;6183780;23;20248;-69
2022/03/15 10:57:23;;;;;;;1999.90;999.90;;;;;;;;;;6185153;23;20165;-68
2022/03/15 11:00:10;;;;;;;1999.90;999.90;;;;;;;;;;6185538;23;20171;-69
2022/03/15 11:02:56;;;;;;;1999.90;999.90;;;;;;;;;;6184252;23;20401;-70
2022/03/15 11:05:41;;;;;;;1999.90;999.90;;;;;;;;;;6185723;23;20814;-65
2022/03/15 11:08:27;;;;;;;1999.90;999.90;;;;;;;;;;6184682;23;20169;-68
2022/03/15 11:11:25;;;;;;;1999.90;999.90;;;;;;;;;;6185529;23;20309;-67
2022/03/15 11:14:10;;;;;;;1999.90;999.90;;;;;;;;;;6185683;23;20501;-70
2022/03/15 11:16:57;;;;;;;1999.90;999.90;;;;;;;;;;6185600;23;20501;-68
2022/03/15 11:19:45;;;;;;;1999.90;999.90;;;;;;;;;;6184609;23;20500;-67
2022/03/15 11:22:30;;;;;;;1999.90;999.90;;;;;;;;;;6185308;23;20246;-68
2022/03/15 11:25:17;;;;;;;1999.90;999.90;;;;;;;;;;6185542;23;20674;-70
2022/03/15 11:28:02;;;;;;;1999.90;999.90;;;;;;;;;;6184437;23;20526;-68
2022/03/15 11:30:50;;;;;;;1999.90;999.90;;;;;;;;;;6185417;23;20225;-70
2022/03/15 11:33:37;;;;;;;1999.90;999.90;;;;;;;;;;6185392;23;20171;-67
2022/03/15 11:36:23;;;;;;;1999.90;999.90;;;;;;;;;;6185347;23;20348;-70
2022/03/15 11:39:09;;;;;;;1999.90;999.90;;;;;;;;;;6184491;23;20246;-67
2022/03/15 11:41:54;;;;;;;1999.90;999.90;;;;;;;;;;6185345;23;20247;-67
2022/03/15 11:44:46;;;;;;;1999.90;999.90;;;;;;;;;;6185323;23;20218;-70
2022/03/15 11:47:39;;;;;;;1999.90;999.90;;;;;;;;;;6185304;23;20683;-70
2022/03/15 11:50:28;;;;;;;1999.90;999.90;;;;;;;;;;6185172;23;20169;-69
2022/03/15 11:53:16;;;;;;;1999.90;999.90;;;;;;;;;;6185365;23;20208;-70
2022/03/15 11:56:05;;;;;;;1999.90;999.90;;;;;;;;;;6184659;23;20176;-71
2022/03/15 11:58:52;;;;;;;1999.90;999.90;;;;;;;;;;6184350;23;20675;-69
2022/03/15 12:01:44;;;;;;;1999.90;999.90;;;;;;;;;;6185048;23;20209;-70
2022/03/15 12:04:32;;;;;;;1999.90;999.90;;;;;;;;;;6184832;23;20223;-70
2022/03/15 12:07:36;;;;;;;1999.90;999.90;;;;;;;;;;6185175;23;20253;-68
2022/03/15 12:10:23;;;;;;;1999.90;999.90;;;;;;;;;;6184988;23;20177;-68
2022/03/15 12:13:09;;;;;;;1999.90;999.90;;;;;;;;;;6185115;23;20194;-69
2022/03/15 12:15:54;;;;;;;1999.90;999.90;;;;;;;;;;6184603;23;20252;-68
2022/03/15 12:18:44;;;;;;;1999.90;999.90;;;;;;;;;;6184380;23;20171;-67
2022/03/15 12:21:29;;;;;;;1999.90;999.90;;;;;;;;;;6184372;23;20202;-68
2022/03/15 12:24:17;;;;;;;1999.90;999.90;;;;;;;;;;6184975;23;20172;-70
2022/03/15 12:27:03;;;;;;;1999.90;999.90;;;;;;;;;;6184875;23;20625;-69
2022/03/15 12:29:51;;;;;;;1999.90;999.90;;;;;;;;;;6184067;23;20174;-68
2022/03/15 12:32:36;;;;;;;1999.90;999.90;;;;;;;;;;6184183;23;20204;-68
2022/03/15 12:35:24;;;;;;;1999.90;999.90;;;;;;;;;;6183302;23;20404;-71
2022/03/15 12:38:10;;;;;;;1999.90;999.90;;;;;;;;;;6183879;23;20193;-70
2022/03/15 12:40:56;;;;;;;1999.90;999.90;;;;;;;;;;6184880;23;20548;-69
2022/03/15 12:43:41;;;;;;;1999.90;999.90;;;;;;;;;;6184698;23;20250;-70
2022/03/15 12:46:30;;;;;;;1999.90;999.90;;;;;;;;;;6184612;23;20172;-69
2022/03/15 12:49:17;;;;;;;1999.90;999.90;;;;;;;;;;6183742;23;20239;-68
2022/03/15 12:52:09;;;;;;;1999.90;999.90;;;;;;;;;;6184138;23;20572;-68
2022/03/15 12:54:58;;;;;;;1999.90;999.90;;;;;;;;;;6184779;23;20169;-70
2022/03/15 12:57:45;;;;;;;1999.90;999.90;;;;;;;;;;6183315;23;20170;-67
2022/03/15 13:00:31;;;;;;;1999.90;999.90;;;;;;;;;;6184438;23;20538;-68
2022/03/15 13:03:17;;;;;;;1999.90;999.90;;;;;;;;;;6184440;23;20615;-68
2022/03/15 13:06:03;;;;;;;1999.90;999.90;;;;;;;;;;6184617;23;20325;-68
2022/03/15 13:08:59;;;;;;;1999.90;999.90;;;;;;;;;;6183300;23;20176;-69
2022/03/15 13:11:45;;;;;;;1999.90;999.90;;;;;;;;;;6184332;23;20209;-68
2022/03/15 13:14:33;;;;;;;1999.90;999.90;;;;;;;;;;6184312;23;20173;-66
2022/03/15 13:17:18;;;;;;;1999.90;999.90;;;;;;;;;;6184125;23;20170;-68
2022/03/15 13:20:07;;;;;;;1999.90;999.90;;;;;;;;;;6183616;23;20169;-68
2022/03/15 13:22:56;;;;;;;1999.90;999.90;;;;;;;;;;6184511;23;20503;-67
2022/03/15 13:25:44;;;;;;;1999.90;999.90;;;;;;;;;;6184446;23;20297;-68
2022/03/15 13:28:30;;;;;;;1999.90;999.90;;;;;;;;;;6183386;23;20212;-68
2022/03/15 13:31:17;;;;;;;1999.90;999.90;;;;;;;;;;6184252;23;20245;-68
2022/03/15 13:34:03;;;;;;;1999.90;999.90;;;;;;;;;;6184186;23;20181;-65
2022/03/15 13:36:48;;;;;;;1999.90;999.90;;;;;;;;;;6184365;23;20380;-68
2022/03/15 13:39:34;;;;;;;1999.90;999.90;;;;;;;;;;6181507;23;20275;-65
2022/03/15 13:42:21;;;;;;;1999.90;999.90;;;;;;;;;;6184087;23;20207;-68
2022/03/15 13:45:06;;;;;;;1999.90;999.90;;;;;;;;;;6184118;23;20170;-68
2022/03/15 13:47:53;;;;;;;1999.90;999.90;;;;;;;;;;6182201;23;20166;-68
2022/03/15 13:50:38;;;;;;;1999.90;999.90;;;;;;;;;;6185024;23;20174;-66
2022/03/15 13:53:24;;;;;;;1999.90;999.90;;;;;;;;;;6184456;23;20196;-68
2022/03/15 13:56:11;;;;;;;1999.90;999.90;;;;;;;;;;6183884;23;20173;-67
2022/03/15 13:58:58;;;;;;;1999.90;999.90;;;;;;;;;;6183273;23;20253;-69
2022/03/15 14:01:44;;;;;;;1999.90;999.90;;;;;;;;;;6183481;23;20317;-70
2022/03/15 14:04:32;;;;;;;1999.90;999.90;;;;;;;;;;6184001;23;20172;-69
2022/03/15 14:07:22;;;;;;;1999.90;999.90;;;;;;;;;;6183167;23;20743;-70
2022/03/15 14:10:09;;;;;;;1999.90;999.90;;;;;;;;;;6183420;23;20174;-69
2022/03/15 14:12:55;;;;;;;1999.90;999.90;;;;;;;;;;6183881;23;20265;-70
2022/03/15 14:15:43;;;;;;;1999.90;999.90;;;;;;;;;;6183851;23;20166;-70
2022/03/15 14:18:28;;;;;;;1999.90;999.90;;;;;;;;;;6182749;23;20218;-70
2022/03/15 14:21:23;;;;;;;1999.90;999.90;;;;;;;;;;6183726;23;20378;-70
2022/03/15 14:24:09;;;;;;;1999.90;999.90;;;;;;;;;;6183935;23;20217;-68
2022/03/15 14:26:56;;;;;;;1999.90;999.90;;;;;;;;;;6183240;23;20298;-68
2022/03/15 14:29:47;;;;;;;1999.90;999.90;;;;;;;;;;6182770;23;20170;-69
2022/03/15 14:32:32;;;;;;;1999.90;999.90;;;;;;;;;;6183146;23;20280;-67
2022/03/15 14:35:18;;;;;;;1999.90;999.90;;;;;;;;;;6183603;23;20166;-70
2022/03/15 14:38:10;;;;;;;1999.90;999.90;;;;;;;;;;6182723;23;20604;-66
2022/03/15 14:40:58;;;;;;;1999.90;999.90;;;;;;;;;;6183505;23;20208;-68
2022/03/15 14:43:44;;;;;;;1999.90;999.90;;;;;;;;;;6183572;23;20665;-68
2022/03/15 14:46:29;;;;;;;1999.90;999.90;;;;;;;;;;6183603;23;20213;-65
2022/03/15 14:49:18;;;;;;;1999.90;999.90;;;;;;;;;;6182512;23;20234;-69
2022/03/15 14:52:05;;;;;;;1999.90;999.90;;;;;;;;;;6183161;23;20206;-67
2022/03/15 14:54:53;;;;;;;1999.90;999.90;;;;;;;;;;6183665;23;20174;-68
2022/03/15 14:57:39;;;;;;;1999.90;999.90;;;;;;;;;;6182782;23;20256;-67
2022/03/15 15:00:24;;;;;;;1999.90;999.90;;;;;;;;;;6183587;23;20170;-68
2022/03/15 15:03:12;;;;;;;1999.90;999.90;;;;;;;;;;6183300;23;20618;-67
2022/03/15 15:05:58;;;;;;;1999.90;999.90;;;;;;;;;;6183369;23;20166;-69
2022/03/15 15:08:46;;;;;;;1999.90;999.90;;;;;;;;;;6182318;23;20252;-70
2022/03/15 15:11:35;;;;;;;1999.90;999.90;;;;;;;;;;6183394;23;20209;-68
2022/03/15 15:14:21;;;;;;;1999.90;999.90;;;;;;;;;;6183331;23;20165;-68
2022/03/15 15:17:06;;;;;;;1999.90;999.90;;;;;;;;;;6183572;23;20242;-66
2022/03/15 15:19:52;;;;;;;1999.90;999.90;;;;;;;;;;6182478;23;20173;-68
2022/03/15 15:22:41;;;;;;;1999.90;999.90;;;;;;;;;;6183600;23;20201;-68
2022/03/15 15:25:26;;;;;;;1999.90;999.90;;;;;;;;;;6183579;23;20514;-67
2022/03/15 15:28:13;;;;;;;1999.90;999.90;;;;;;;;;;6182686;23;20165;-66
2022/03/15 15:30:58;;;;;;;1999.90;999.90;;;;;;;;;;6183322;23;20683;-67
2022/03/15 15:33:44;;;;;;;1999.90;999.90;;;;;;;;;;6183509;23;20216;-69
2022/03/15 15:36:29;;;;;;;1999.90;999.90;;;;;;;;;;6183482;23;20173;-66
2022/03/15 15:39:16;;;;;;;1999.90;999.90;;;;;;;;;;6180811;23;20781;-66
2022/03/15 15:42:04;;;;;;;1999.90;999.90;;;;;;;;;;6183791;23;20213;-69
2022/03/15 15:44:52;;;;;;;1999.90;999.90;;;;;;;;;;6185066;23;20170;-68
2022/03/15 15:47:38;;;;;;;1999.90;999.90;;;;;;;;;;6184895;23;20169;-66
2022/03/15 15:50:27;;;;;;;1999.90;999.90;;;;;;;;;;6184722;23;20186;-66
2022/03/15 15:53:13;;;;;;;1999.90;999.90;;;;;;;;;;6185020;23;20197;-66
2022/03/15 15:55:58;;;;;;;1999.90;999.90;;;;;;;;;;6185015;23;20205;-69
2022/03/15 15:58:43;;;;;;;1999.90;999.90;;;;;;;;;;6184288;23;20169;-66
2022/03/15 16:01:32;;;;;;;1999.90;999.90;;;;;;;;;;6184876;23;20318;-66
2022/03/15 16:04:17;;;;;;;1999.90;999.90;;;;;;;;;;6184772;23;20635;-67
2022/03/15 16:07:04;;;;;;;1999.90;999.90;;;;;;;;;;6184997;23;20178;-66
2022/03/15 16:09:50;;;;;;;1999.90;999.90;;;;;;;;;;6183855;23;20273;-67
2022/03/15 16:12:35;;;;;;;1999.90;999.90;;;;;;;;;;6184500;23;20549;-66
2022/03/15 16:15:22;;;;;;;1999.90;999.90;;;;;;;;;;6185076;23;20253;-67
2022/03/15 16:18:09;;;;;;;1999.90;999.90;;;;;;;;;;6184111;23;20173;-67
2022/03/15 16:20:55;;;;;;;1999.90;999.90;;;;;;;;;;6184782;23;20202;-67
2022/03/15 16:23:40;;;;;;;1999.90;999.90;;;;;;;;;;6184975;23;20173;-67
2022/03/15 16:26:27;;;;;;;1999.90;999.90;;;;;;;;;;6184843;23;20173;-68
2022/03/15 16:29:12;;;;;;;1999.90;999.90;;;;;;;;;;6183949;23;20173;-68
2022/03/15 16:31:59;;;;;;;1999.90;999.90;;;;;;;;;;6183772;23;20224;-68
2022/03/15 16:34:45;;;;;;;1999.90;999.90;;;;;;;;;;6183930;23;20460;-68
2022/03/15 16:37:30;;;;;;;1999.90;999.90;;;;;;;;;;6184524;23;20244;-67
2022/03/15 16:40:15;;;;;;;1999.90;999.90;;;;;;;;;;6184589;23;20189;-69
2022/03/15 16:43:00;;;;;;;1999.90;999.90;;;;;;;;;;6185034;23;20264;-68
2022/03/15 16:45:45;;;;;;;1999.90;999.90;;;;;;;;;;6184982;23;20597;-68
2022/03/15 16:48:30;;;;;;;1999.90;999.90;;;;;;;;;;6183839;23;20251;-68
2022/03/15 16:51:16;;;;;;;1999.90;999.90;;;;;;;;;;6184249;23;20201;-67
2022/03/15 16:54:01;;;;;;;1999.90;999.90;;;;;;;;;;6183936;23;20201;-66
2022/03/15 16:56:46;;;;;;;1999.90;999.90;;;;;;;;;;6184600;23;20550;-67
2022/03/15 16:59:32;;;;;;;1999.90;999.90;;;;;;;;;;6183547;23;20244;-69
2022/03/15 17:02:17;;;;;;;1999.90;999.90;;;;;;;;;;6184086;23;20261;-66
2022/03/15 17:08:06;;;;;;;1999.90;999.90;;;;;;;;;;6183649;23;20226;-69
2022/03/15 17:10:52;;;;;;;1999.90;999.90;;;;;;;;;;6184205;23;20294;-68
2022/03/15 17:13:37;;;;;;;1999.90;999.90;;;;;;;;;;6184155;23;20196;-70
2022/03/15 17:16:22;;;;;;;1999.90;999.90;;;;;;;;;;6185839;23;20210;-68
2022/03/15 17:19:10;;;;;;;1999.90;999.90;;;;;;;;;;6185108;23;20211;-68
2022/03/15 17:21:55;;;;;;;1999.90;999.90;;;;;;;;;;6185178;23;20220;-67
2022/03/15 17:24:41;;;;;;;1999.90;999.90;;;;;;;;;;6185453;23;20245;-69
2022/03/15 17:27:28;;;;;;;1999.90;999.90;;;;;;;;;;6185052;23;20214;-67
2022/03/15 17:30:13;;;;;;;1999.90;999.90;;;;;;;;;;6181920;23;20176;-66
2022/03/15 17:32:58;;;;;;;1999.90;999.90;;;;;;;;;;6182117;23;20278;-67
2022/03/15 17:35:42;;;;;;;1999.90;999.90;;;;;;;;;;6181953;23;20617;-69
2022/03/15 17:38:28;;;;;;;1999.90;999.90;;;;;;;;;;6181267;23;20244;-69
2022/03/15 17:41:17;;;;;;;1999.90;999.90;;;;;;;;;;6181665;23;20322;-69
2022/03/15 17:44:01;;;;;;;1999.90;999.90;;;;;;;;;;6182782;23;20216;-67
2022/03/15 17:46:53;;;;;;;1999.90;999.90;;;;;;;;;;6182567;23;20172;-68
2022/03/15 17:49:38;;;;;;;1999.90;999.90;;;;;;;;;;6181262;23;20166;-68
2022/03/15 17:52:23;;;;;;;1999.90;999.90;;;;;;;;;;6181546;23;20253;-67
2022/03/15 17:55:14;;;;;;;1999.90;999.90;;;;;;;;;;6182372;23;20606;-68
2022/03/15 17:58:11;;;;;;;1999.90;999.90;;;;;;;;;;6180696;23;20182;-67
2022/03/15 18:00:56;;;;;;;1999.90;999.90;;;;;;;;;;6181742;23;20288;-69
2022/03/15 18:03:43;;;;;;;1999.90;999.90;;;;;;;;;;6181816;23;20197;-67
2022/03/15 18:06:28;;;;;;;1999.90;999.90;;;;;;;;;;6181939;23;20190;-68
2022/03/15 18:09:13;;;;;;;1999.90;999.90;;;;;;;;;;6180796;23;20267;-69
2022/03/15 18:12:01;;;;;;;1999.90;999.90;;;;;;;;;;6181749;23;20245;-69
2022/03/15 18:14:53;;;;;;;1999.90;999.90;;;;;;;;;;6182261;23;20650;-69
2022/03/15 18:17:43;;;;;;;1999.90;999.90;;;;;;;;;;6181456;23;20167;-70
2022/03/15 18:20:31;;;;;;;1999.90;999.90;;;;;;;;;;6181914;23;20633;-69
2022/03/15 18:23:16;;;;;;;1999.90;999.90;;;;;;;;;;6182935;23;20162;-70
2022/03/15 18:26:08;;;;;;;1999.90;999.90;;;;;;;;;;6184469;23;20170;-70
2022/03/15 18:28:56;;;;;;;1999.90;999.90;;;;;;;;;;6183170;23;20174;-69
2022/03/15 18:31:42;;;;;;;1999.90;999.90;;;;;;;;;;6183991;23;20214;-69
2022/03/15 18:34:28;;;;;;;1999.90;999.90;;;;;;;;;;6183939;23;20198;-69
2022/03/15 18:37:12;;;;;;;1999.90;999.90;;;;;;;;;;6183428;23;20911;-69
2022/03/15 18:40:00;;;;;;;1999.90;999.90;;;;;;;;;;6183111;23;20169;-69
2022/03/15 18:42:48;;;;;;;1999.90;999.90;;;;;;;;;;6183843;23;20201;-69
2022/03/15 18:45:36;;;;;;;1999.90;999.90;;;;;;;;;;6184027;23;20253;-69
2022/03/15 18:48:23;;;;;;;1999.90;999.90;;;;;;;;;;6183075;23;20649;-67
2022/03/15 18:51:08;;;;;;;1999.90;999.90;;;;;;;;;;6183828;23;20555;-68
2022/03/15 18:53:54;;;;;;;1999.90;999.90;;;;;;;;;;6183854;23;20338;-69
2022/03/15 18:56:39;;;;;;;1999.90;999.90;;;;;;;;;;6184285;23;20170;-69
2022/03/15 18:59:25;;;;;;;1999.90;999.90;;;;;;;;;;6182931;23;20174;-70
2022/03/15 19:02:10;;;;;;;1999.90;999.90;;;;;;;;;;6183646;23;20210;-69
2022/03/15 19:05:05;;;;;;;1999.90;999.90;;;;;;;;;;6183865;23;20623;-67
2022/03/15 19:07:50;;;;;;;1999.90;999.90;;;;;;;;;;6182969;23;20172;-67
2022/03/15 19:10:36;;;;;;;1999.90;999.90;;;;;;;;;;6183721;23;20167;-69
2022/03/15 19:13:21;;;;;;;1999.90;999.90;;;;;;;;;;6183732;23;20641;-70
2022/03/15 19:16:11;;;;;;;1999.90;999.90;;;;;;;;;;6183818;23;20504;-69
2022/03/15 19:18:59;;;;;;;1999.90;999.90;;;;;;;;;;6185260;23;20312;-69
2022/03/15 19:21:48;;;;;;;1999.90;999.90;;;;;;;;;;6185737;23;20608;-69
2022/03/15 19:24:33;;;;;;;1999.90;999.90;;;;;;;;;;6185706;23;20162;-68
2022/03/15 19:27:18;;;;;;;1999.90;999.90;;;;;;;;;;6185714;23;20209;-69
2022/03/15 19:30:06;;;;;;;1999.90;999.90;;;;;;;;;;6185358;23;20169;-69
2022/03/15 19:32:52;;;;;;;1999.90;999.90;;;;;;;;;;6185676;23;20170;-69
2022/03/15 19:35:37;;;;;;;1999.90;999.90;;;;;;;;;;6185686;23;20169;-69
2022/03/15 19:38:25;;;;;;;1999.90;999.90;;;;;;;;;;6182919;23;20633;-68
2022/03/15 19:41:10;;;;;;;1999.90;999.90;;;;;;;;;;6183230;23;20229;-69
2022/03/15 19:43:56;;;;;;;1999.90;999.90;;;;;;;;;;6185224;23;20242;-69
2022/03/15 19:46:43;;;;;;;1999.90;999.90;;;;;;;;;;6182525;23;20170;-69
2022/03/15 19:49:28;;;;;;;1999.90;999.90;;;;;;;;;;6181776;23;20214;-69
2022/03/15 19:52:14;;;;;;;1999.90;999.90;;;;;;;;;;6183500;23;20326;-71
2022/03/15 19:55:00;;;;;;;1999.90;999.90;;;;;;;;;;6183001;23;20698;-68
2022/03/15 19:57:45;;;;;;;1999.90;999.90;;;;;;;;;;6182847;23;20616;-68
2022/03/15 20:00:34;;;;;;;1999.90;999.90;;;;;;;;;;6182934;23;20462;-68
2022/03/15 20:03:19;;;;;;;1999.90;999.90;;;;;;;;;;6182968;23;20675;-69
2022/03/15 20:06:06;;;;;;;1999.90;999.90;;;;;;;;;;6182903;23;20170;-67
2022/03/15 20:08:54;;;;;;;1999.90;999.90;;;;;;;;;;6181974;23;20213;-69
2022/03/15 20:11:41;;;;;;;1999.90;999.90;;;;;;;;;;6182171;23;20367;-68
2022/03/15 20:14:28;;;;;;;1999.90;999.90;;;;;;;;;;6182771;23;20548;-67
2022/03/15 20:17:13;;;;;;;1999.90;999.90;;;;;;;;;;6183524;23;20699;-68
2022/03/15 20:19:57;;;;;;;1999.90;999.90;;;;;;;;;;6181862;23;20185;-68
2022/03/15 20:22:42;;;;;;;1999.90;999.90;;;;;;;;;;6182741;23;20588;-68
2022/03/15 20:25:28;;;;;;;1999.90;999.90;;;;;;;;;;6182556;23;20165;-69
2022/03/15 20:28:14;;;;;;;1999.90;999.90;;;;;;;;;;6181524;23;20499;-68
2022/03/15 20:31:03;;;;;;;1999.90;999.90;;;;;;;;;;6182371;23;20206;-68
2022/03/15 20:33:49;;;;;;;1999.90;999.90;;;;;;;;;;6183046;23;20273;-69
2022/03/15 20:36:35;;;;;;;1999.90;999.90;;;;;;;;;;6182982;23;20169;-68
2022/03/15 20:39:22;;;;;;;1999.90;999.90;;;;;;;;;;6182063;23;20629;-68
2022/03/15 20:42:07;;;;;;;1999.90;999.90;;;;;;;;;;6182643;23;20650;-69
2022/03/15 20:44:55;;;;;;;1999.90;999.90;;;;;;;;;;6183000;23;20700;-70
2022/03/15 20:47:46;;;;;;;1999.90;999.90;;;;;;;;;;6184059;23;20301;-68
2022/03/15 20:50:33;;;;;;;1999.90;999.90;;;;;;;;;;6184461;23;20294;-69
2022/03/15 20:53:20;;;;;;;1999.90;999.90;;;;;;;;;;6184038;23;20169;-68
2022/03/15 20:56:07;;;;;;;1999.90;999.90;;;;;;;;;;6184820;23;20222;-68
2022/03/15 20:58:55;;;;;;;1999.90;999.90;;;;;;;;;;6183783;23;20182;-69
2022/03/15 21:01:43;;;;;;;1999.90;999.90;;;;;;;;;;6184326;23;20213;-70
2022/03/15 21:04:29;;;;;;;1999.90;999.90;;;;;;;;;;6184757;23;20163;-68
2022/03/15 21:07:14;;;;;;;1999.90;999.90;;;;;;;;;;6184481;23;20229;-68
2022/03/15 21:09:59;;;;;;;1999.90;999.90;;;;;;;;;;6183918;23;20624;-68
2022/03/15 21:12:45;;;;;;;1999.90;999.90;;;;;;;;;;6184445;23;20261;-68
2022/03/15 21:15:30;;;;;;;1999.90;999.90;;;;;;;;;;6184551;23;20200;-69
2022/03/15 21:18:17;;;;;;;1999.90;999.90;;;;;;;;;;6181925;23;20376;-68
2022/03/15 21:21:03;;;;;;;1999.90;999.90;;;;;;;;;;6184417;23;20305;-67
2022/03/15 21:23:49;;;;;;;1999.90;999.90;;;;;;;;;;6184353;23;20169;-69
2022/03/15 21:26:35;;;;;;;1999.90;999.90;;;;;;;;;;6184304;23;20171;-68
2022/03/15 21:29:21;;;;;;;1999.90;999.90;;;;;;;;;;6181831;23;20290;-69
2022/03/15 21:32:06;;;;;;;1999.90;999.90;;;;;;;;;;6182641;23;20209;-68